Time;durP1;ratioP1;P1;durP2;ratioP2;P2;SDS_P1;SDS_P2;PMS_P1;PMS_P2;Temp;Humidity;BMP_temperature;BMP_pressure;BME280_temperature;BME280_humidity;BME280_pressure;Samples;Min_cycle;Max_cycle;Signal;HPM_P1;HPM_P2
2023/10/31 00:02:00;;;;;;;12.23;4.80;;;20.50;69.80;;;;;;5093199;28;20031;-51
2023/10/31 00:04:26;;;;;;;10.38;4.82;;;20.50;69.80;;;;;;5094170;28;20023;-48
2023/10/31 00:06:52;;;;;;;13.52;5.05;;;20.50;69.70;;;;;;5092578;28;20402;-51
2023/10/31 00:09:17;;;;;;;14.73;5.05;;;20.50;69.70;;;;;;5088731;28;20016;-50
2023/10/31 00:11:44;;;;;;;13.35;5.00;;;20.50;69.80;;;;;;5094015;28;20103;-50
2023/10/31 00:14:10;;;;;;;13.18;4.65;;;20.50;69.80;;;;;;5084941;28;20487;-50
2023/10/31 00:16:35;;;;;;;11.93;4.50;;;20.50;69.70;;;;;;5084192;28;20028;-47
2023/10/31 00:19:01;;;;;;;13.20;4.75;;;20.50;69.70;;;;;;5083119;28;20029;-50
2023/10/31 00:21:27;;;;;;;12.90;4.50;;;20.50;69.70;;;;;;5092516;28;20024;-48
2023/10/31 00:23:53;;;;;;;14.63;4.97;;;20.50;69.70;;;;;;5091784;28;20103;-51
2023/10/31 00:26:18;;;;;;;10.38;4.80;;;20.50;69.70;;;;;;5092626;28;20490;-50
2023/10/31 00:28:51;;;;;;;14.93;5.00;;;20.50;69.60;;;;;;5082945;28;20016;-54
2023/10/31 00:31:17;;;;;;;12.15;4.57;;;20.50;69.60;;;;;;5085333;28;20034;-47
2023/10/31 00:33:43;;;;;;;13.10;4.78;;;20.50;69.60;;;;;;5086034;28;20032;-54
2023/10/31 00:36:09;;;;;;;12.70;5.10;;;20.50;69.50;;;;;;5091080;28;20036;-53
2023/10/31 00:38:35;;;;;;;11.45;4.55;;;20.50;69.50;;;;;;5093424;28;20074;-50
2023/10/31 00:41:01;;;;;;;9.48;4.18;;;20.50;69.50;;;;;;5083178;28;20063;-52
2023/10/31 00:43:26;;;;;;;9.50;4.40;;;20.40;69.30;;;;;;5086126;28;20046;-51
2023/10/31 00:45:53;;;;;;;11.95;5.00;;;20.50;69.40;;;;;;5092564;28;20101;-55
2023/10/31 00:48:20;;;;;;;13.63;4.60;;;20.40;69.40;;;;;;5084701;28;20013;-48
2023/10/31 00:50:46;;;;;;;8.15;4.50;;;20.40;69.40;;;;;;5091615;28;20024;-55
2023/10/31 00:53:13;;;;;;;9.25;4.20;;;20.50;69.40;;;;;;5092453;28;20027;-55
2023/10/31 00:55:39;;;;;;;14.77;4.82;;;20.50;69.40;;;;;;5089737;28;20532;-55
2023/10/31 00:58:05;;;;;;;10.52;4.18;;;20.40;69.40;;;;;;5091128;28;20103;-55
2023/10/31 01:00:31;;;;;;;11.57;4.45;;;20.40;69.40;;;;;;5085741;28;20020;-48
2023/10/31 01:02:57;;;;;;;11.00;4.00;;;20.40;69.40;;;;;;5089527;28;20047;-50
2023/10/31 01:05:23;;;;;;;8.13;4.32;;;20.40;69.40;;;;;;5091111;28;20024;-54
2023/10/31 01:07:49;;;;;;;13.38;4.40;;;20.40;69.40;;;;;;5089784;28;20457;-48
2023/10/31 01:10:15;;;;;;;9.93;4.80;;;20.40;69.40;;;;;;5083910;28;20110;-51
2023/10/31 01:12:40;;;;;;;9.43;4.03;;;20.40;69.40;;;;;;5091678;28;20048;-51
2023/10/31 01:15:07;;;;;;;8.63;4.15;;;20.40;69.50;;;;;;5091124;28;20555;-49
2023/10/31 01:17:32;;;;;;;11.95;4.63;;;20.50;69.60;;;;;;5091037;28;20055;-52
2023/10/31 01:19:58;;;;;;;10.20;5.03;;;20.50;69.50;;;;;;5081465;28;20071;-52
2023/10/31 01:22:24;;;;;;;12.88;4.72;;;20.50;69.50;;;;;;5083216;28;20024;-53
2023/10/31 01:24:50;;;;;;;10.25;4.50;;;20.50;69.50;;;;;;5089879;28;20093;-54
2023/10/31 01:27:16;;;;;;;8.35;4.07;;;20.50;69.60;;;;;;5089677;28;20038;-51
2023/10/31 01:29:41;;;;;;;11.18;4.15;;;20.50;69.60;;;;;;5091251;28;20590;-50
2023/10/31 01:32:07;;;;;;;9.63;3.72;;;20.40;69.50;;;;;;5091237;28;20564;-52
2023/10/31 01:34:33;;;;;;;12.45;4.07;;;20.40;69.80;;;;;;5091390;28;20028;-52
2023/10/31 01:36:59;;;;;;;7.90;4.10;;;20.40;69.50;;;;;;5091070;28;20032;-52
2023/10/31 01:39:24;;;;;;;13.65;4.65;;;20.40;69.50;;;;;;5085844;28;20095;-52
2023/10/31 01:41:50;;;;;;;15.48;4.38;;;20.40;69.60;;;;;;5087519;28;20043;-55
2023/10/31 01:44:16;;;;;;;11.10;4.40;;;20.40;69.50;;;;;;5088407;28;20031;-50
2023/10/31 01:46:42;;;;;;;9.75;4.47;;;20.40;69.60;;;;;;5090654;28;20495;-50
2023/10/31 01:49:08;;;;;;;10.60;4.38;;;20.40;69.60;;;;;;5090625;28;20058;-51
2023/10/31 01:51:34;;;;;;;7.90;4.05;;;20.40;69.60;;;;;;5092128;28;20024;-50
2023/10/31 01:53:59;;;;;;;13.10;4.53;;;20.40;69.60;;;;;;5091074;28;20094;-50
2023/10/31 01:56:26;;;;;;;9.38;4.05;;;20.30;69.50;;;;;;5091640;28;20023;-50
2023/10/31 01:58:53;;;;;;;8.85;4.38;;;20.40;69.60;;;;;;5090641;28;20030;-52
2023/10/31 02:01:19;;;;;;;11.30;4.35;;;20.40;69.60;;;;;;5090233;28;20245;-52
2023/10/31 02:03:45;;;;;;;13.55;4.07;;;20.40;69.60;;;;;;5088951;28;20330;-54
2023/10/31 02:06:11;;;;;;;10.55;4.22;;;20.40;69.60;;;;;;5090341;28;20032;-53
2023/10/31 02:08:37;;;;;;;11.57;4.20;;;20.30;69.60;;;;;;5090882;28;20023;-54
2023/10/31 02:11:03;;;;;;;9.13;4.00;;;20.40;69.70;;;;;;5086531;28;20020;-51
2023/10/31 02:13:29;;;;;;;9.13;3.78;;;20.30;69.60;;;;;;5084577;28;20391;-53
2023/10/31 02:15:55;;;;;;;7.80;3.95;;;20.40;69.70;;;;;;5085317;28;20027;-51
2023/10/31 02:18:21;;;;;;;9.15;4.03;;;20.40;69.60;;;;;;5089874;28;20044;-52
2023/10/31 02:20:48;;;;;;;9.82;4.20;;;20.40;69.60;;;;;;5090828;28;20035;-55
2023/10/31 02:23:16;;;;;;;12.95;4.97;;;20.40;69.60;;;;;;5090823;28;20024;-53
2023/10/31 02:25:42;;;;;;;8.40;4.13;;;20.30;69.60;;;;;;5087126;28;20056;-54
2023/10/31 02:28:07;;;;;;;8.93;4.10;;;20.40;69.70;;;;;;5091070;28;20066;-51
2023/10/31 02:30:34;;;;;;;10.55;4.07;;;20.30;69.60;;;;;;5090861;28;20475;-54
2023/10/31 02:33:01;;;;;;;11.40;3.83;;;20.40;69.60;;;;;;5089197;28;20387;-55
2023/10/31 02:35:27;;;;;;;8.07;3.88;;;20.30;69.60;;;;;;5090529;28;20017;-54
2023/10/31 02:37:53;;;;;;;12.18;3.67;;;20.30;69.70;;;;;;5090631;28;20047;-54
2023/10/31 02:40:19;;;;;;;7.78;3.65;;;20.30;69.60;;;;;;5089551;28;20096;-54
2023/10/31 02:42:45;;;;;;;8.35;4.28;;;20.40;69.60;;;;;;5088726;28;20624;-53
2023/10/31 02:45:11;;;;;;;7.93;3.95;;;20.40;69.60;;;;;;5089241;28;20051;-54
2023/10/31 02:47:37;;;;;;;7.22;3.85;;;20.40;69.60;;;;;;5085439;28;20492;-53
2023/10/31 02:50:03;;;;;;;13.90;4.55;;;20.40;69.60;;;;;;5089875;28;20031;-53
2023/10/31 02:52:29;;;;;;;10.82;4.25;;;20.30;69.50;;;;;;5087852;28;20029;-54
2023/10/31 02:54:55;;;;;;;7.68;3.58;;;20.40;69.60;;;;;;5089066;28;20047;-52
2023/10/31 02:57:21;;;;;;;8.77;3.90;;;20.40;69.60;;;;;;5090334;28;20031;-52
2023/10/31 02:59:46;;;;;;;11.13;4.15;;;20.40;69.50;;;;;;5081934;28;20028;-53
2023/10/31 03:02:12;;;;;;;8.25;4.28;;;20.40;69.50;;;;;;5081589;28;20028;-55
2023/10/31 03:04:38;;;;;;;9.70;4.20;;;20.40;69.50;;;;;;5080605;28;20040;-55
2023/10/31 03:07:04;;;;;;;7.43;4.10;;;20.40;69.60;;;;;;5088577;28;20036;-52
2023/10/31 03:09:30;;;;;;;8.32;3.80;;;20.40;69.60;;;;;;5084466;28;20472;-53
2023/10/31 03:11:55;;;;;;;9.48;3.95;;;20.40;69.60;;;;;;5079948;28;20048;-50
2023/10/31 03:14:21;;;;;;;7.40;3.70;;;20.30;69.50;;;;;;5090008;28;20074;-52
2023/10/31 03:16:47;;;;;;;9.02;3.90;;;20.40;70.10;;;;;;5090014;28;20049;-55
2023/10/31 03:19:13;;;;;;;8.30;4.05;;;20.40;69.60;;;;;;5080832;28;20376;-50
2023/10/31 03:21:39;;;;;;;9.02;3.85;;;20.40;69.60;;;;;;5080386;28;20026;-55
2023/10/31 03:24:05;;;;;;;7.97;4.10;;;20.40;69.70;;;;;;5088762;28;20036;-54
2023/10/31 03:26:31;;;;;;;9.35;4.20;;;20.40;69.60;;;;;;5091661;28;20055;-54
2023/10/31 03:28:57;;;;;;;7.00;4.20;;;20.40;69.60;;;;;;5094108;28;20479;-55
2023/10/31 03:31:24;;;;;;;8.93;4.18;;;20.30;69.70;;;;;;5089288;28;20474;-55
2023/10/31 03:33:50;;;;;;;8.98;4.20;;;20.30;69.70;;;;;;5083353;28;20039;-55
2023/10/31 03:36:16;;;;;;;8.40;3.47;;;20.30;69.70;;;;;;5093585;28;20020;-55
2023/10/31 03:38:41;;;;;;;9.98;4.15;;;20.30;69.70;;;;;;5092311;28;20024;-54
2023/10/31 03:41:08;;;;;;;8.05;4.28;;;20.30;69.70;;;;;;5085423;28;20395;-55
2023/10/31 03:43:34;;;;;;;11.02;4.00;;;20.30;69.70;;;;;;5084907;28;20016;-54
2023/10/31 03:46:00;;;;;;;6.45;3.78;;;20.30;69.80;;;;;;5089082;28;20036;-55
2023/10/31 03:48:26;;;;;;;8.75;4.18;;;20.30;69.80;;;;;;5090775;28;20501;-55
2023/10/31 03:50:52;;;;;;;13.20;4.05;;;20.30;69.80;;;;;;5093781;28;20422;-54
2023/10/31 03:53:18;;;;;;;8.07;4.20;;;20.30;69.80;;;;;;5084859;28;20020;-55
2023/10/31 03:55:44;;;;;;;7.75;3.45;;;20.30;69.80;;;;;;5083942;28;20486;-51
2023/10/31 03:58:10;;;;;;;10.57;4.03;;;20.30;69.90;;;;;;5093833;28;20031;-48
2023/10/31 04:00:38;;;;;;;7.97;3.67;;;20.30;69.80;;;;;;5085477;28;20032;-49
2023/10/31 04:03:04;;;;;;;6.07;3.70;;;20.30;69.80;;;;;;5084063;28;20028;-48
2023/10/31 04:05:30;;;;;;;7.78;3.75;;;20.30;69.80;;;;;;5082907;28;20020;-51
2023/10/31 04:07:55;;;;;;;8.32;3.95;;;20.30;69.80;;;;;;5090956;28;20034;-48
2023/10/31 04:10:21;;;;;;;8.90;4.45;;;20.30;69.80;;;;;;5093375;28;20052;-50
2023/10/31 04:12:47;;;;;;;9.18;4.15;;;20.30;69.80;;;;;;5093479;28;20050;-49
2023/10/31 04:15:13;;;;;;;5.65;3.55;;;20.30;69.80;;;;;;5093967;28;20032;-51
2023/10/31 04:17:39;;;;;;;7.97;3.80;;;20.30;69.90;;;;;;5090824;28;20019;-53
2023/10/31 04:20:05;;;;;;;7.20;4.07;;;20.30;69.80;;;;;;5092882;28;20032;-54
2023/10/31 04:22:31;;;;;;;9.25;3.92;;;20.30;69.80;;;;;;5092703;28;20548;-54
2023/10/31 04:24:56;;;;;;;8.57;4.00;;;20.30;69.80;;;;;;5084067;28;20028;-52
2023/10/31 04:27:22;;;;;;;7.03;4.03;;;20.30;69.80;;;;;;5091629;28;20027;-55
2023/10/31 04:29:48;;;;;;;7.10;3.88;;;20.30;69.90;;;;;;5092799;28;20024;-55
2023/10/31 04:32:14;;;;;;;9.75;4.10;;;20.30;69.80;;;;;;5092794;28;20021;-55
2023/10/31 04:34:40;;;;;;;8.82;4.10;;;20.30;70.40;;;;;;5085709;28;20016;-54
2023/10/31 04:37:06;;;;;;;10.77;3.90;;;20.30;69.90;;;;;;5090673;28;20024;-55
2023/10/31 04:39:31;;;;;;;8.55;3.75;;;20.30;69.90;;;;;;5091638;28;20208;-55
2023/10/31 04:41:57;;;;;;;7.00;3.92;;;20.30;69.80;;;;;;5084827;28;20040;-55
2023/10/31 04:44:23;;;;;;;7.68;3.90;;;20.30;69.80;;;;;;5090048;28;20063;-52
2023/10/31 04:46:49;;;;;;;8.77;3.80;;;20.30;69.80;;;;;;5084494;28;20043;-55
2023/10/31 04:49:18;;;;;;;7.10;3.78;;;20.30;70.40;;;;;;5089148;28;20016;-55
2023/10/31 04:51:43;;;;;;;5.53;3.40;;;20.30;69.80;;;;;;5093285;28;20028;-56
2023/10/31 04:54:09;;;;;;;9.15;3.85;;;20.30;69.90;;;;;;5088910;28;20063;-52
2023/10/31 04:56:36;;;;;;;5.50;3.40;;;20.30;69.80;;;;;;5087691;28;20023;-54
2023/10/31 04:59:02;;;;;;;7.22;3.67;;;20.30;69.90;;;;;;5082799;28;20546;-54
2023/10/31 05:01:28;;;;;;;7.68;3.97;;;20.30;69.90;;;;;;5092409;28;20051;-55
2023/10/31 05:03:53;;;;;;;5.40;3.47;;;20.30;69.90;;;;;;5090764;28;20024;-52
2023/10/31 05:06:20;;;;;;;7.22;3.67;;;20.30;69.90;;;;;;5083460;28;20415;-50
2023/10/31 05:08:46;;;;;;;8.18;4.05;;;20.30;70.00;;;;;;5091668;28;20035;-55
2023/10/31 05:11:12;;;;;;;8.07;3.97;;;20.30;70.00;;;;;;5090926;28;20022;-54
2023/10/31 05:13:39;;;;;;;6.82;3.53;;;20.30;70.00;;;;;;5091174;28;20107;-51
2023/10/31 05:16:05;;;;;;;6.32;3.90;;;20.30;70.00;;;;;;5091911;28;20111;-55
2023/10/31 05:18:31;;;;;;;8.75;3.45;;;20.30;70.00;;;;;;5092103;28;20024;-53
2023/10/31 05:20:57;;;;;;;6.70;3.97;;;20.30;70.10;;;;;;5091664;28;20053;-49
2023/10/31 05:23:22;;;;;;;8.60;3.97;;;20.30;70.00;;;;;;5091991;28;20021;-50
2023/10/31 05:25:48;;;;;;;8.98;3.80;;;20.30;70.00;;;;;;5082425;28;20099;-54
2023/10/31 05:28:14;;;;;;;6.57;3.67;;;20.30;70.10;;;;;;5091587;28;20445;-55
2023/10/31 05:30:39;;;;;;;6.30;3.85;;;20.30;70.10;;;;;;5092626;28;20100;-55
2023/10/31 05:33:05;;;;;;;7.28;3.78;;;20.30;70.20;;;;;;5090036;28;20068;-51
2023/10/31 05:35:31;;;;;;;6.38;3.60;;;20.30;70.10;;;;;;5090561;28;20016;-50
2023/10/31 05:37:57;;;;;;;9.55;3.97;;;20.40;70.20;;;;;;5091391;28;20016;-52
2023/10/31 05:40:25;;;;;;;7.60;3.80;;;20.40;70.10;;;;;;5092322;28;20023;-55
2023/10/31 05:42:51;;;;;;;7.35;4.07;;;20.30;70.00;;;;;;5090297;28;20108;-50
2023/10/31 05:45:16;;;;;;;6.80;3.67;;;20.40;70.10;;;;;;5091272;28;20112;-55
2023/10/31 05:47:42;;;;;;;5.38;3.22;;;20.30;70.00;;;;;;5059966;22;20124;-53
2023/10/31 05:50:08;;;;;;;7.75;4.03;;;20.30;70.00;;;;;;5031962;28;20025;-49
2023/10/31 05:52:34;;;;;;;5.97;3.42;;;20.40;70.10;;;;;;5027606;28;20022;-49
2023/10/31 05:55:00;;;;;;;9.45;3.58;;;20.30;70.10;;;;;;5031340;28;20026;-46
2023/10/31 05:57:26;;;;;;;8.10;3.63;;;20.40;70.10;;;;;;5031282;28;20057;-49
2023/10/31 05:59:51;;;;;;;8.88;3.78;;;20.40;70.10;;;;;;5023327;28;20025;-48
2023/10/31 06:02:18;;;;;;;6.32;3.67;;;20.40;70.10;;;;;;5022472;28;20029;-51
2023/10/31 06:04:43;;;;;;;9.18;3.50;;;20.40;70.00;;;;;;5031658;28;20148;-52
2023/10/31 06:07:11;;;;;;;6.30;3.35;;;20.40;70.00;;;;;;5030391;28;20116;-54
2023/10/31 06:09:37;;;;;;;6.05;3.53;;;20.40;70.00;;;;;;5030878;28;20086;-52
2023/10/31 06:12:03;;;;;;;6.85;3.80;;;20.40;70.00;;;;;;5038476;28;20045;-53
2023/10/31 06:14:29;;;;;;;6.00;3.50;;;20.40;70.00;;;;;;5030173;28;20104;-54
2023/10/31 06:16:56;;;;;;;6.15;3.65;;;20.40;70.00;;;;;;5029862;28;20171;-51
2023/10/31 06:19:22;;;;;;;10.65;4.03;;;20.40;70.00;;;;;;5026756;28;20026;-54
2023/10/31 06:21:48;;;;;;;6.07;3.50;;;20.40;70.00;;;;;;5019501;28;20112;-53
2023/10/31 06:24:14;;;;;;;6.70;3.72;;;20.40;70.00;;;;;;5026901;28;20018;-54
2023/10/31 06:26:39;;;;;;;6.03;3.38;;;20.30;70.10;;;;;;5028853;28;20025;-54
2023/10/31 06:29:05;;;;;;;6.30;3.42;;;20.30;70.10;;;;;;5030099;28;20515;-54
2023/10/31 06:31:31;;;;;;;8.35;3.30;;;20.30;70.10;;;;;;5031426;28;20111;-54
2023/10/31 06:33:57;;;;;;;5.80;3.45;;;20.30;70.10;;;;;;5022551;28;20033;-53
2023/10/31 06:36:23;;;;;;;5.55;3.22;;;20.30;70.20;;;;;;5028686;28;20026;-54
2023/10/31 06:38:49;;;;;;;6.75;3.30;;;20.30;70.20;;;;;;5030373;28;20041;-54
2023/10/31 06:41:15;;;;;;;6.82;3.40;;;20.30;70.30;;;;;;5030193;28;20030;-53
2023/10/31 06:43:41;;;;;;;4.75;2.88;;;20.30;70.30;;;;;;5032460;28;20045;-55
2023/10/31 06:46:07;;;;;;;8.20;3.22;;;20.30;70.30;;;;;;5028828;28;20029;-54
2023/10/31 06:48:33;;;;;;;7.65;3.10;;;20.40;70.20;;;;;;5030782;28;20524;-52
2023/10/31 06:50:59;;;;;;;5.28;3.28;;;20.30;70.30;;;;;;5029358;28;20036;-51
2023/10/31 06:53:24;;;;;;;5.20;3.20;;;20.30;70.40;;;;;;5027753;28;20022;-52
2023/10/31 06:55:50;;;;;;;6.78;3.35;;;20.30;70.50;;;;;;5029628;28;20096;-49
2023/10/31 06:58:16;;;;;;;7.63;3.83;;;20.30;70.30;;;;;;5031648;28;20056;-50
2023/10/31 07:00:42;;;;;;;5.18;2.92;;;20.30;70.30;;;;;;5034257;28;20038;-54
2023/10/31 07:03:09;;;;;;;8.45;3.58;;;20.30;70.40;;;;;;5025902;28;20076;-54
2023/10/31 07:05:36;;;;;;;7.13;3.58;;;20.30;70.40;;;;;;5032159;28;20029;-54
2023/10/31 07:08:03;;;;;;;8.82;3.47;;;20.30;70.40;;;;;;5034020;28;20104;-53
2023/10/31 07:10:29;;;;;;;6.25;3.17;;;20.30;70.40;;;;;;5035028;28;20079;-53
2023/10/31 07:12:55;;;;;;;4.93;2.95;;;20.30;70.40;;;;;;5032974;28;20026;-55
2023/10/31 07:15:21;;;;;;;6.60;3.35;;;20.30;70.50;;;;;;5024700;28;20071;-53
2023/10/31 07:17:47;;;;;;;6.32;3.22;;;20.40;70.60;;;;;;5033902;28;20132;-52
2023/10/31 07:20:13;;;;;;;6.28;3.50;;;20.30;70.40;;;;;;5032452;28;20025;-54
2023/10/31 07:22:39;;;;;;;7.00;3.40;;;20.30;70.30;;;;;;5037566;28;20026;-54
2023/10/31 07:25:06;;;;;;;6.10;3.13;;;20.30;70.20;;;;;;5034649;28;20667;-52
2023/10/31 07:27:32;;;;;;;6.78;3.30;;;20.40;70.30;;;;;;5034568;28;20026;-53
2023/10/31 07:29:58;;;;;;;4.82;3.05;;;20.40;70.40;;;;;;5033725;28;20048;-54
2023/10/31 07:32:25;;;;;;;6.05;3.08;;;20.40;70.50;;;;;;5034647;28;20071;-55
2023/10/31 07:34:52;;;;;;;13.65;3.63;;;20.40;70.20;;;;;;5034513;28;20075;-53
2023/10/31 07:37:18;;;;;;;8.68;3.45;;;20.40;70.30;;;;;;5030335;28;20035;-52
2023/10/31 07:39:43;;;;;;;5.45;3.20;;;20.30;70.30;;;;;;5030548;28;20463;-54
2023/10/31 07:42:09;;;;;;;6.88;2.83;;;20.30;70.20;;;;;;5034118;28;20068;-54
2023/10/31 07:44:35;;;;;;;4.50;2.92;;;20.40;70.40;;;;;;5032879;28;20095;-53
2023/10/31 07:47:01;;;;;;;8.73;2.83;;;20.40;70.20;;;;;;5031948;28;20044;-55
2023/10/31 07:49:27;;;;;;;10.60;3.28;;;20.40;70.50;;;;;;5032462;28;20017;-53
2023/10/31 07:51:53;;;;;;;9.10;2.70;;;20.40;70.20;;;;;;5029815;28;20079;-55
2023/10/31 07:54:19;;;;;;;14.25;2.90;;;20.40;70.20;;;;;;5026486;28;20029;-55
2023/10/31 07:56:45;;;;;;;9.32;3.35;;;20.40;70.30;;;;;;5031881;28;20037;-55
2023/10/31 07:59:11;;;;;;;18.23;3.70;;;20.40;70.50;;;;;;5017103;28;20030;-48
2023/10/31 08:01:37;;;;;;;20.13;3.92;;;20.50;71.10;;;;;;5024371;28;20405;-51
2023/10/31 08:04:03;;;;;;;16.92;3.80;;;20.50;71.90;;;;;;5036903;28;20033;-47
2023/10/31 08:06:28;;;;;;;19.00;4.25;;;20.50;72.30;;;;;;5038449;28;20446;-48
2023/10/31 08:08:54;;;;;;;24.52;4.10;;;20.50;73.50;;;;;;5033256;28;20026;-54
2023/10/31 08:11:20;;;;;;;18.92;4.80;;;20.60;76.10;;;;;;5038692;28;20021;-48
2023/10/31 08:13:46;;;;;;;12.23;3.65;;;20.80;74.70;;;;;;5040881;28;20029;-49
2023/10/31 08:16:19;;;;;;;24.33;4.63;;;20.90;74.10;;;;;;5035061;28;20599;-53
2023/10/31 08:18:47;;;;;;;15.15;4.05;;;21.00;73.50;;;;;;5026830;28;20040;-54
2023/10/31 08:21:13;;;;;;;14.93;4.28;;;20.90;74.20;;;;;;5030805;28;20075;-51
2023/10/31 08:23:38;;;;;;;13.52;4.45;;;21.00;75.80;;;;;;5032041;28;20037;-51
2023/10/31 08:26:04;;;;;;;9.02;3.80;;;21.00;75.20;;;;;;5028070;28;20021;-55
2023/10/31 08:28:30;;;;;;;11.90;4.38;;;20.90;76.10;;;;;;5030607;28;20025;-54
2023/10/31 08:30:57;;;;;;;14.98;3.88;;;21.00;74.50;;;;;;5030852;28;20401;-54
2023/10/31 08:33:23;;;;;;;12.38;3.97;;;21.00;74.30;;;;;;5029747;28;20582;-53
2023/10/31 08:35:49;;;;;;;10.70;3.17;;;20.90;72.00;;;;;;5028094;28;20028;-54
2023/10/31 08:38:15;;;;;;;13.95;3.42;;;20.90;72.90;;;;;;5028748;28;20033;-53
2023/10/31 08:40:41;;;;;;;9.80;3.83;;;20.90;72.80;;;;;;5030765;28;20032;-52
2023/10/31 08:43:07;;;;;;;9.05;2.97;;;20.90;72.50;;;;;;5029332;28;20034;-54
2023/10/31 08:45:33;;;;;;;10.80;3.42;;;20.90;72.30;;;;;;5028802;28;20026;-48
2023/10/31 08:48:00;;;;;;;17.45;3.05;;;20.90;71.70;;;;;;5028702;28;20029;-50
2023/10/31 08:50:26;;;;;;;6.70;2.90;;;20.80;71.00;;;;;;5029702;28;20416;-52
2023/10/31 08:52:52;;;;;;;9.25;2.95;;;20.80;70.70;;;;;;5031867;28;21127;-52
2023/10/31 08:55:18;;;;;;;10.63;2.60;;;20.80;69.70;;;;;;5037244;28;20032;-49
2023/10/31 08:57:44;;;;;;;6.22;2.20;;;20.80;70.00;;;;;;5039142;28;20068;-50
2023/10/31 09:00:10;;;;;;;10.35;2.38;;;20.80;69.80;;;;;;5035726;28;20092;-51
2023/10/31 09:02:36;;;;;;;3.80;2.03;;;20.80;69.50;;;;;;5043730;28;20025;-52
2023/10/31 09:05:01;;;;;;;10.80;2.70;;;20.70;68.90;;;;;;5034890;28;20037;-49
2023/10/31 09:07:27;;;;;;;8.43;2.00;;;20.70;68.40;;;;;;5028576;28;20116;-49
2023/10/31 09:09:53;;;;;;;6.72;2.20;;;20.70;68.10;;;;;;5026154;28;20025;-50
2023/10/31 09:12:19;;;;;;;5.45;2.05;;;20.70;67.80;;;;;;5037840;28;20512;-49
2023/10/31 09:14:45;;;;;;;7.40;2.05;;;20.70;67.50;;;;;;5034370;28;20559;-49
2023/10/31 09:17:11;;;;;;;12.98;2.15;;;20.70;67.60;;;;;;5038011;28;20075;-49
2023/10/31 09:19:37;;;;;;;7.95;1.98;;;20.70;67.70;;;;;;5042004;28;20056;-47
2023/10/31 09:22:02;;;;;;;3.78;1.63;;;20.70;67.30;;;;;;5037540;28;20330;-50
2023/10/31 09:24:28;;;;;;;6.13;2.03;;;20.70;67.40;;;;;;5037956;28;20029;-48
2023/10/31 09:26:55;;;;;;;4.38;1.70;;;20.70;67.00;;;;;;5036439;28;20047;-49
2023/10/31 09:29:20;;;;;;;6.22;1.65;;;20.70;66.70;;;;;;5040073;28;20400;-49
2023/10/31 09:31:47;;;;;;;3.30;1.60;;;20.60;66.40;;;;;;5040365;28;20047;-46
2023/10/31 09:34:13;;;;;;;3.67;1.60;;;20.60;66.40;;;;;;5038015;28;20021;-49
2023/10/31 09:36:40;;;;;;;4.32;1.67;;;20.60;66.00;;;;;;5042442;28;20439;-49
2023/10/31 09:39:06;;;;;;;3.75;1.40;;;20.60;66.00;;;;;;5039806;28;20111;-49
2023/10/31 09:41:34;;;;;;;5.25;1.63;;;20.60;66.00;;;;;;5038911;28;20564;-47
2023/10/31 09:44:00;;;;;;;1.90;1.30;;;20.60;66.10;;;;;;5034814;28;20404;-47
2023/10/31 09:46:28;;;;;;;3.15;1.40;;;20.60;66.00;;;;;;5036395;28;20037;-51
2023/10/31 09:48:55;;;;;;;5.20;1.65;;;20.60;65.80;;;;;;5035028;28;20029;-49
2023/10/31 09:51:22;;;;;;;3.03;1.40;;;20.50;65.60;;;;;;5025455;28;20037;-47
2023/10/31 09:53:49;;;;;;;3.30;1.48;;;20.50;66.00;;;;;;5034399;28;20025;-47
2023/10/31 09:56:16;;;;;;;4.15;1.52;;;20.60;65.10;;;;;;5038244;28;20025;-50
2023/10/31 09:58:41;;;;;;;11.20;1.52;;;20.50;64.80;;;;;;5031473;28;20096;-47
2023/10/31 10:01:08;;;;;;;10.98;1.80;;;20.50;66.20;;;;;;5029723;28;20025;-49
2023/10/31 10:03:34;;;;;;;5.82;1.90;;;20.60;65.50;;;;;;5028028;28;20029;-48
2023/10/31 10:06:02;;;;;;;7.35;1.95;;;20.60;65.40;;;;;;5036833;28;20032;-48
2023/10/31 10:08:27;;;;;;;7.93;2.15;;;20.60;65.60;;;;;;5038601;28;20198;-49
2023/10/31 10:10:54;;;;;;;3.90;1.40;;;20.60;65.90;;;;;;5041470;28;20085;-50
2023/10/31 10:13:21;;;;;;;9.73;2.08;;;20.70;66.20;;;;;;5041604;28;20021;-49
2023/10/31 10:15:53;;;;;;;6.38;1.92;;;20.70;66.40;;;;;;5037233;28;20021;-52
2023/10/31 10:18:30;;;;;;;7.00;2.08;;;20.70;66.40;;;;;;5036454;28;20095;-45
2023/10/31 10:21:00;;;;;;;3.17;1.80;;;20.70;66.60;;;;;;5042362;28;20032;-53
2023/10/31 10:23:27;;;;;;;7.45;1.75;;;20.70;66.70;;;;;;5041372;28;20033;-52
2023/10/31 10:25:54;;;;;;;9.27;1.77;;;20.70;66.80;;;;;;5039882;28;20048;-49
2023/10/31 10:28:20;;;;;;;5.93;1.73;;;20.70;66.90;;;;;;5042894;28;20026;-47
2023/10/31 10:30:47;;;;;;;4.70;1.95;;;20.70;66.90;;;;;;5043349;28;20033;-48
2023/10/31 10:33:14;;;;;;;6.60;2.13;;;20.70;67.10;;;;;;5037577;28;20021;-47
2023/10/31 10:35:40;;;;;;;5.45;2.33;;;20.70;67.10;;;;;;5037785;28;20052;-47
2023/10/31 10:38:12;;;;;;;3.97;1.90;;;20.70;67.20;;;;;;5035808;28;20455;-50
2023/10/31 10:40:46;;;;;;;5.13;1.90;;;20.70;67.10;;;;;;5041923;28;20044;-49
2023/10/31 10:43:22;;;;;;;5.80;2.00;;;20.70;67.40;;;;;;5043614;28;20044;-52
2023/10/31 10:45:55;;;;;;;3.95;2.00;;;20.60;67.40;;;;;;5038355;28;20030;-48
2023/10/31 10:48:22;;;;;;;4.35;2.17;;;20.70;67.50;;;;;;5033258;28;20040;-48
2023/10/31 10:50:55;;;;;;;3.75;2.10;;;20.70;67.60;;;;;;5042997;28;20029;-55
2023/10/31 10:53:26;;;;;;;10.02;2.40;;;20.70;67.50;;;;;;5034559;28;20033;-52
2023/10/31 10:55:56;;;;;;;5.57;2.08;;;20.70;67.60;;;;;;5035840;28;20026;-50
2023/10/31 10:58:34;;;;;;;4.57;2.33;;;20.70;67.50;;;;;;5037032;28;20030;-53
2023/10/31 11:01:01;;;;;;;4.93;2.13;;;20.70;67.60;;;;;;5042367;28;20032;-53
2023/10/31 11:03:29;;;;;;;4.03;2.38;;;20.70;67.70;;;;;;5039199;28;20032;-48
2023/10/31 11:05:57;;;;;;;3.78;2.00;;;20.70;67.70;;;;;;5044634;28;20025;-48
2023/10/31 11:08:24;;;;;;;5.82;2.40;;;20.70;67.60;;;;;;5034246;28;20033;-47
2023/10/31 11:10:51;;;;;;;4.57;2.40;;;20.70;67.70;;;;;;5037448;28;20369;-50
2023/10/31 11:13:17;;;;;;;7.93;2.40;;;20.70;67.70;;;;;;5041941;28;20022;-50
2023/10/31 11:15:43;;;;;;;11.57;2.55;;;20.70;67.70;;;;;;5042577;28;20480;-46
2023/10/31 11:18:10;;;;;;;9.80;2.55;;;20.70;67.70;;;;;;5040771;28;20065;-50
2023/10/31 11:20:39;;;;;;;3.42;2.17;;;20.70;67.90;;;;;;5040861;28;20032;-48
2023/10/31 11:23:06;;;;;;;5.90;2.08;;;20.70;67.70;;;;;;5037550;28;20083;-46
2023/10/31 11:25:32;;;;;;;4.90;2.25;;;20.80;67.90;;;;;;5039709;28;20037;-46
2023/10/31 11:28:12;;;;;;;5.60;2.03;;;20.80;67.90;;;;;;5044535;28;20044;-45
2023/10/31 11:30:38;;;;;;;8.48;2.17;;;20.80;68.00;;;;;;5037138;28;20036;-48
2023/10/31 11:33:05;;;;;;;5.60;2.22;;;20.80;68.00;;;;;;5041746;28;20108;-46
2023/10/31 11:35:33;;;;;;;4.13;2.35;;;20.80;67.90;;;;;;5041733;28;20471;-46
2023/10/31 11:38:07;;;;;;;5.30;2.75;;;20.80;67.90;;;;;;5039095;28;20033;-53
2023/10/31 11:40:33;;;;;;;6.57;2.35;;;20.80;67.90;;;;;;5034649;28;20037;-46
2023/10/31 11:43:03;;;;;;;4.68;2.25;;;20.70;67.90;;;;;;5035609;28;20037;-47
2023/10/31 11:45:30;;;;;;;;;;;20.80;68.00;;;;;;5041473;28;20025;-49
2023/10/31 11:47:57;;;;;;;3.42;2.10;;;20.80;68.00;;;;;;5045970;28;20376;-47
2023/10/31 11:50:23;;;;;;;6.88;2.47;;;20.80;68.60;;;;;;5045173;28;20029;-49
2023/10/31 11:53:06;;;;;;;7.90;2.47;;;20.70;68.00;;;;;;5038292;28;20096;-50
2023/10/31 11:55:37;;;;;;;11.63;2.28;;;20.80;68.10;;;;;;5035242;28;20049;-51
2023/10/31 11:58:18;;;;;;;18.17;2.70;;;20.80;68.10;;;;;;5043806;28;20028;-52
2023/10/31 12:00:46;;;;;;;9.38;2.42;;;20.80;67.90;;;;;;5038926;28;20033;-50
2023/10/31 12:03:13;;;;;;;9.65;2.53;;;20.70;67.70;;;;;;5036908;28;20036;-55
2023/10/31 12:05:38;;;;;;;9.55;2.53;;;20.70;67.80;;;;;;5047332;28;20046;-47
2023/10/31 12:08:04;;;;;;;15.65;2.40;;;20.70;67.90;;;;;;5042131;28;20470;-55
2023/10/31 12:10:30;;;;;;;7.45;2.60;;;20.60;67.70;;;;;;5041885;28;20021;-53
2023/10/31 12:12:58;;;;;;;8.70;2.60;;;20.60;67.80;;;;;;5041000;28;20038;-47
2023/10/31 12:15:24;;;;;;;6.28;2.50;;;20.60;67.90;;;;;;5044431;28;20094;-52
2023/10/31 12:17:50;;;;;;;10.05;2.25;;;20.60;67.80;;;;;;5042840;28;20032;-54
2023/10/31 12:20:16;;;;;;;8.05;2.80;;;20.60;67.80;;;;;;5044447;28;20419;-49
2023/10/31 12:22:43;;;;;;;5.60;2.53;;;20.50;67.80;;;;;;5042722;28;20037;-54
2023/10/31 12:25:11;;;;;;;5.22;2.60;;;20.60;67.80;;;;;;5038304;28;20404;-54
2023/10/31 12:27:48;;;;;;;4.15;2.15;;;20.50;67.80;;;;;;5043100;28;20025;-50
2023/10/31 12:30:17;;;;;;;8.80;2.38;;;20.50;67.70;;;;;;5040221;28;20037;-54
2023/10/31 12:32:44;;;;;;;12.07;2.33;;;20.50;67.70;;;;;;5046015;28;20485;-54
2023/10/31 12:35:21;;;;;;;5.03;2.58;;;20.50;67.70;;;;;;5038592;28;20025;-53
2023/10/31 12:37:49;;;;;;;4.30;2.22;;;20.50;67.70;;;;;;5041535;28;20048;-53
2023/10/31 12:40:18;;;;;;;3.90;2.35;;;20.50;67.60;;;;;;5042716;28;20033;-52
2023/10/31 12:42:45;;;;;;;5.73;2.33;;;20.50;68.00;;;;;;5044101;28;20033;-55